Hovedside
METAR-TAF:

METAR-TAF

Lufthavner :

Kristiansand, Norge

Kristiansand lufthavn

breddegrad: 58-12N, lengdegrad: 008-05E, høyde over havet: 1 m

Gjeldene værobservasjon

Denne rapporten ble laget for 26 minutter siden, klokken 20:20 UTC
Vind 3 kt fra Nord-nordøst
Temperatur 6°C
Luftfuktighet 93%
Trykk 1023 hPa
Sikt 10 km eller mer
ingen skyer under 1500 m og ingen bygeskyer

METAR: ENCN 262020Z 03003KT CAVOK 06/05 Q1023

Tid: 22:46 (20:46 UTC)

Varsel

Denne rapporten ble laget for 3 timer og 46 minutter siden, klokken 17:00 UTC
Varsel gyldig fra 26. klokken 18 UTC til 26. klokken 22 UTC
Vind 5 kt fra skiftende retning
Sikt 10 km eller mer
ingen skyer under 1500 m og ingen bygeskyer
Blir
fra 26. klokken 19 UTC til 26. klokken 21 UTC
Vind 10 kt fra Nordvest

TAF: ENCN 261700Z 2618/2622 VRB05KT CAVOK BECMG 2619/2621 32010KT

Værobservasjoner og værvarsel for over 4000 flyplasser (METAR- og TAF-rapporter).

Tilgjengelige stasjoner er representert av de røde og gule prikkene på kartet.

Hold musepekeren over prikken for å se navnet på stasjonen.

Klikk så for å se værobservasjoner og -varsler.

For å forandre kartet kan du klikke på den grønne knappen med svart kryss for å zoome inn, på den grønne knappen med strek for å zoome ut, eller på de grønne pilene for å se tilstøtende kart.


METAR-TAF: